sensor_id;sensor_type;location;lat;lon;timestamp;pressure;altitude;pressure_sealevel;temperature;humidity
9129;BME280;4599;50.906;6.786;2024-01-15T00:03:17;99082.47;;;-0.01;91.43
9129;BME280;4599;50.906;6.786;2024-01-15T00:07:18;99087.03;;;-0.09;91.71
9129;BME280;4599;50.906;6.786;2024-01-15T00:11:20;99082.38;;;-0.16;91.35
9129;BME280;4599;50.906;6.786;2024-01-15T00:15:21;99071.63;;;-0.03;91.11
9129;BME280;4599;50.906;6.786;2024-01-15T00:19:25;99071.19;;;-0.11;92.40
9129;BME280;4599;50.906;6.786;2024-01-15T00:23:26;99064.69;;;-0.15;92.88
9129;BME280;4599;50.906;6.786;2024-01-15T00:27:28;99060.75;;;-0.03;92.46
9129;BME280;4599;50.906;6.786;2024-01-15T00:31:30;99062.38;;;-0.19;93.56
9129;BME280;4599;50.906;6.786;2024-01-15T00:35:33;99067.22;;;-0.15;93.36
9129;BME280;4599;50.906;6.786;2024-01-15T00:39:35;99057.88;;;-0.13;93.69
9129;BME280;4599;50.906;6.786;2024-01-15T00:43:36;99056.97;;;-0.12;93.72
9129;BME280;4599;50.906;6.786;2024-01-15T00:47:38;99060.06;;;-0.07;92.98
9129;BME280;4599;50.906;6.786;2024-01-15T00:51:41;99056.63;;;-0.04;93.43
9129;BME280;4599;50.906;6.786;2024-01-15T00:55:43;99054.31;;;-0.09;93.71
9129;BME280;4599;50.906;6.786;2024-01-15T00:59:47;99052.50;;;-0.07;94.17
9129;BME280;4599;50.906;6.786;2024-01-15T01:03:48;99052.47;;;-0.05;94.09
9129;BME280;4599;50.906;6.786;2024-01-15T01:07:51;99056.00;;;-0.09;94.36
9129;BME280;4599;50.906;6.786;2024-01-15T01:11:53;99054.97;;;-0.22;95.45
9129;BME280;4599;50.906;6.786;2024-01-15T01:15:54;99068.09;;;-0.16;95.54
9129;BME280;4599;50.906;6.786;2024-01-15T01:19:57;99067.94;;;-0.13;95.90
9129;BME280;4599;50.906;6.786;2024-01-15T01:24:00;99056.69;;;-0.23;96.21
9129;BME280;4599;50.906;6.786;2024-01-15T01:28:01;99045.66;;;-0.20;96.26
9129;BME280;4599;50.906;6.786;2024-01-15T01:32:04;99044.81;;;-0.21;96.52
9129;BME280;4599;50.906;6.786;2024-01-15T01:36:07;99030.31;;;-0.16;96.22
9129;BME280;4599;50.906;6.786;2024-01-15T01:40:10;99033.00;;;-0.19;95.87
9129;BME280;4599;50.906;6.786;2024-01-15T01:44:12;99033.50;;;-0.12;94.73
9129;BME280;4599;50.906;6.786;2024-01-15T01:48:14;99038.84;;;-0.18;95.16
9129;BME280;4599;50.906;6.786;2024-01-15T01:52:15;99038.75;;;-0.17;95.17
9129;BME280;4599;50.906;6.786;2024-01-15T01:56:18;99043.63;;;-0.14;95.23
9129;BME280;4599;50.906;6.786;2024-01-15T02:00:20;99038.44;;;-0.11;95.09
9129;BME280;4599;50.906;6.786;2024-01-15T02:04:23;99033.16;;;-0.22;95.32
9129;BME280;4599;50.906;6.786;2024-01-15T02:08:25;99031.50;;;-0.06;95.11
9129;BME280;4599;50.906;6.786;2024-01-15T02:12:29;99042.44;;;-0.07;95.30
9129;BME280;4599;50.906;6.786;2024-01-15T02:16:30;99028.66;;;0.00;95.85
9129;BME280;4599;50.906;6.786;2024-01-15T02:20:32;99038.44;;;-0.11;95.16
9129;BME280;4599;50.906;6.786;2024-01-15T02:24:35;99040.09;;;-0.10;95.50
9129;BME280;4599;50.906;6.786;2024-01-15T02:28:37;99035.28;;;0.03;94.59
9129;BME280;4599;50.906;6.786;2024-01-15T02:32:39;99028.91;;;-0.04;94.22
9129;BME280;4599;50.906;6.786;2024-01-15T02:36:41;99033.69;;;0.00;94.60
9129;BME280;4599;50.906;6.786;2024-01-15T02:40:44;99033.69;;;0.00;94.46
9129;BME280;4599;50.906;6.786;2024-01-15T02:44:46;99034.53;;;0.01;94.00
9129;BME280;4599;50.906;6.786;2024-01-15T02:48:47;99029.69;;;0.14;93.59
9129;BME280;4599;50.906;6.786;2024-01-15T02:52:49;99018.38;;;0.05;94.62
9129;BME280;4599;50.906;6.786;2024-01-15T02:56:52;99022.59;;;0.05;94.21
9129;BME280;4599;50.906;6.786;2024-01-15T03:00:54;99029.84;;;-0.07;94.74
9129;BME280;4599;50.906;6.786;2024-01-15T03:04:55;99045.03;;;0.09;94.04
9129;BME280;4599;50.906;6.786;2024-01-15T03:08:57;99035.34;;;0.02;94.65
9129;BME280;4599;50.906;6.786;2024-01-15T03:13:00;99038.97;;;0.13;93.79
9129;BME280;4599;50.906;6.786;2024-01-15T03:17:01;99040.81;;;0.10;94.39
9129;BME280;4599;50.906;6.786;2024-01-15T03:21:04;99037.97;;;0.16;93.75
9129;BME280;4599;50.906;6.786;2024-01-15T03:25:06;99034.13;;;0.09;94.21
9129;BME280;4599;50.906;6.786;2024-01-15T03:29:09;99033.03;;;0.14;94.10
9129;BME280;4599;50.906;6.786;2024-01-15T03:33:11;99030.13;;;0.05;94.45
9129;BME280;4599;50.906;6.786;2024-01-15T03:37:13;99022.53;;;0.06;94.56
9129;BME280;4599;50.906;6.786;2024-01-15T03:41:15;99023.41;;;0.05;94.19
9129;BME280;4599;50.906;6.786;2024-01-15T03:45:18;99025.94;;;0.05;94.53
9129;BME280;4599;50.906;6.786;2024-01-15T03:49:19;99022.72;;;0.19;94.24
9129;BME280;4599;50.906;6.786;2024-01-15T03:53:21;99018.16;;;0.10;94.76
9129;BME280;4599;50.906;6.786;2024-01-15T03:57:23;99023.19;;;0.10;94.86
9129;BME280;4599;50.906;6.786;2024-01-15T04:01:26;99015.16;;;0.19;95.13
9129;BME280;4599;50.906;6.786;2024-01-15T04:05:27;99009.13;;;0.06;94.40
9129;BME280;4599;50.906;6.786;2024-01-15T04:09:29;99000.34;;;0.13;94.01
9129;BME280;4599;50.906;6.786;2024-01-15T04:13:32;98992.47;;;0.03;94.37
9129;BME280;4599;50.906;6.786;2024-01-15T04:17:35;99000.41;;;0.11;94.63
9129;BME280;4599;50.906;6.786;2024-01-15T04:21:37;99000.19;;;0.16;94.12
9129;BME280;4599;50.906;6.786;2024-01-15T04:25:39;98997.03;;;0.12;94.13
9129;BME280;4599;50.906;6.786;2024-01-15T04:29:41;98996.38;;;0.09;94.85
9129;BME280;4599;50.906;6.786;2024-01-15T04:33:44;98984.69;;;0.23;94.01
9129;BME280;4599;50.906;6.786;2024-01-15T04:37:46;98987.75;;;0.13;94.05
9129;BME280;4599;50.906;6.786;2024-01-15T04:41:47;98973.47;;;0.13;94.08
9129;BME280;4599;50.906;6.786;2024-01-15T04:45:49;98965.75;;;0.16;94.34
9129;BME280;4599;50.906;6.786;2024-01-15T04:49:52;98967.28;;;0.19;94.18
9129;BME280;4599;50.906;6.786;2024-01-15T04:53:54;98974.03;;;0.18;94.92
9129;BME280;4599;50.906;6.786;2024-01-15T04:57:55;98972.91;;;0.24;94.71
9129;BME280;4599;50.906;6.786;2024-01-15T05:01:57;98966.91;;;0.26;94.23
9129;BME280;4599;50.906;6.786;2024-01-15T05:06:00;98963.72;;;0.23;94.59
9129;BME280;4599;50.906;6.786;2024-01-15T05:10:02;98967.00;;;0.25;94.28
9129;BME280;4599;50.906;6.786;2024-01-15T05:14:04;98964.53;;;0.23;94.74
9129;BME280;4599;50.906;6.786;2024-01-15T05:18:05;98962.94;;;0.38;93.52
9129;BME280;4599;50.906;6.786;2024-01-15T05:22:09;98956.59;;;0.31;93.70
9129;BME280;4599;50.906;6.786;2024-01-15T05:26:10;98948.53;;;0.24;93.91
9129;BME280;4599;50.906;6.786;2024-01-15T05:30:13;98953.59;;;0.40;93.59
9129;BME280;4599;50.906;6.786;2024-01-15T05:34:14;98944.09;;;0.45;93.17
9129;BME280;4599;50.906;6.786;2024-01-15T05:38:17;98956.53;;;0.48;92.75
9129;BME280;4599;50.906;6.786;2024-01-15T05:42:19;98952.53;;;0.44;93.08
9129;BME280;4599;50.906;6.786;2024-01-15T05:46:21;98950.75;;;0.46;93.49
9129;BME280;4599;50.906;6.786;2024-01-15T05:50:22;98948.97;;;0.48;93.10
9129;BME280;4599;50.906;6.786;2024-01-15T05:54:25;98951.47;;;0.48;92.95
9129;BME280;4599;50.906;6.786;2024-01-15T05:58:27;98949.03;;;0.46;93.19
9129;BME280;4599;50.906;6.786;2024-01-15T06:02:28;98943.75;;;0.51;93.74
9129;BME280;4599;50.906;6.786;2024-01-15T06:06:30;98940.69;;;0.46;93.85
9129;BME280;4599;50.906;6.786;2024-01-15T06:10:33;98948.38;;;0.59;93.37
9129;BME280;4599;50.906;6.786;2024-01-15T06:14:35;98944.97;;;0.44;93.43
9129;BME280;4599;50.906;6.786;2024-01-15T06:18:36;98930.34;;;0.50;93.57
9129;BME280;4599;50.906;6.786;2024-01-15T06:22:38;98930.59;;;0.46;94.21
9129;BME280;4599;50.906;6.786;2024-01-15T06:26:41;98930.00;;;0.41;94.72
9129;BME280;4599;50.906;6.786;2024-01-15T06:30:43;98929.19;;;0.40;94.77
9129;BME280;4599;50.906;6.786;2024-01-15T06:34:45;98928.78;;;0.32;94.86
9129;BME280;4599;50.906;6.786;2024-01-15T06:38:47;98929.13;;;0.42;94.78
9129;BME280;4599;50.906;6.786;2024-01-15T06:42:50;98914.19;;;0.39;94.77
9129;BME280;4599;50.906;6.786;2024-01-15T06:46:51;98908.31;;;0.54;94.62
9129;BME280;4599;50.906;6.786;2024-01-15T06:50:53;98907.34;;;0.41;94.73
9129;BME280;4599;50.906;6.786;2024-01-15T06:54:54;98916.94;;;0.34;95.06
9129;BME280;4599;50.906;6.786;2024-01-15T06:58:58;98910.75;;;0.40;94.42
9129;BME280;4599;50.906;6.786;2024-01-15T07:02:59;98906.34;;;0.43;94.45
9129;BME280;4599;50.906;6.786;2024-01-15T07:07:01;98905.00;;;0.38;94.66
9129;BME280;4599;50.906;6.786;2024-01-15T07:11:03;98884.34;;;0.31;94.76
9129;BME280;4599;50.906;6.786;2024-01-15T07:15:07;98910.25;;;0.33;94.54
9129;BME280;4599;50.906;6.786;2024-01-15T07:19:08;98914.00;;;0.42;93.95
9129;BME280;4599;50.906;6.786;2024-01-15T07:23:10;98914.09;;;0.56;93.83
9129;BME280;4599;50.906;6.786;2024-01-15T07:27:12;98904.25;;;0.52;94.03
9129;BME280;4599;50.906;6.786;2024-01-15T07:31:17;98900.19;;;0.49;94.22
9129;BME280;4599;50.906;6.786;2024-01-15T07:35:19;98915.78;;;0.40;94.19
9129;BME280;4599;50.906;6.786;2024-01-15T07:39:20;98907.47;;;0.54;94.42
9129;BME280;4599;50.906;6.786;2024-01-15T07:43:22;98907.28;;;0.42;94.02
9129;BME280;4599;50.906;6.786;2024-01-15T07:47:25;98906.13;;;0.48;94.38
9129;BME280;4599;50.906;6.786;2024-01-15T07:51:27;98910.16;;;0.50;93.58
9129;BME280;4599;50.906;6.786;2024-01-15T07:55:29;98908.94;;;0.58;92.83
9129;BME280;4599;50.906;6.786;2024-01-15T07:59:31;98914.63;;;0.61;93.25
9129;BME280;4599;50.906;6.786;2024-01-15T08:03:33;98916.75;;;0.69;92.06
9129;BME280;4599;50.906;6.786;2024-01-15T08:07:35;98906.44;;;0.73;92.28
9129;BME280;4599;50.906;6.786;2024-01-15T08:11:39;98899.84;;;0.71;92.14
9129;BME280;4599;50.906;6.786;2024-01-15T08:15:41;98895.75;;;0.68;91.55
9129;BME280;4599;50.906;6.786;2024-01-15T08:19:45;98899.09;;;0.69;91.51
9129;BME280;4599;50.906;6.786;2024-01-15T08:23:47;98897.16;;;0.74;91.78
9129;BME280;4599;50.906;6.786;2024-01-15T08:27:48;98899.03;;;0.70;91.38
9129;BME280;4599;50.906;6.786;2024-01-15T08:31:50;98902.03;;;0.77;91.08
9129;BME280;4599;50.906;6.786;2024-01-15T08:35:54;98895.00;;;0.82;91.21
9129;BME280;4599;50.906;6.786;2024-01-15T08:39:55;98901.78;;;0.66;91.84
9129;BME280;4599;50.906;6.786;2024-01-15T08:43:57;98906.91;;;0.64;92.35
9129;BME280;4599;50.906;6.786;2024-01-15T08:47:59;98891.72;;;0.66;92.06
9129;BME280;4599;50.906;6.786;2024-01-15T08:52:04;98895.28;;;0.77;92.22
9129;BME280;4599;50.906;6.786;2024-01-15T08:56:05;98904.47;;;0.63;92.45
9129;BME280;4599;50.906;6.786;2024-01-15T09:00:08;98900.50;;;0.59;92.88
9129;BME280;4599;50.906;6.786;2024-01-15T09:04:10;98895.34;;;0.76;91.32
9129;BME280;4599;50.906;6.786;2024-01-15T09:08:13;98909.75;;;0.74;91.71
9129;BME280;4599;50.906;6.786;2024-01-15T09:12:15;98914.31;;;0.67;92.17
9129;BME280;4599;50.906;6.786;2024-01-15T09:16:17;98910.66;;;0.57;92.94
9129;BME280;4599;50.906;6.786;2024-01-15T09:20:19;98914.97;;;0.55;93.58
9129;BME280;4599;50.906;6.786;2024-01-15T09:24:22;98926.34;;;0.46;94.12
9129;BME280;4599;50.906;6.786;2024-01-15T09:28:29;98921.56;;;0.58;93.97
9129;BME280;4599;50.906;6.786;2024-01-15T09:32:30;98930.66;;;0.44;93.64
9129;BME280;4599;50.906;6.786;2024-01-15T09:36:32;98938.47;;;0.24;95.25
9129;BME280;4599;50.906;6.786;2024-01-15T09:40:38;98932.84;;;0.19;95.38
9129;BME280;4599;50.906;6.786;2024-01-15T09:44:40;98943.91;;;0.17;95.70
9129;BME280;4599;50.906;6.786;2024-01-15T09:48:42;98943.91;;;0.32;95.37
9129;BME280;4599;50.906;6.786;2024-01-15T09:52:44;98944.88;;;0.14;96.19
9129;BME280;4599;50.906;6.786;2024-01-15T09:56:47;98929.41;;;0.05;95.87
9129;BME280;4599;50.906;6.786;2024-01-15T10:00:49;98953.16;;;0.16;96.27
9129;BME280;4599;50.906;6.786;2024-01-15T10:04:51;98950.09;;;0.27;95.52
9129;BME280;4599;50.906;6.786;2024-01-15T10:08:53;98939.63;;;0.34;95.33
9129;BME280;4599;50.906;6.786;2024-01-15T10:12:58;98955.63;;;0.49;94.85
9129;BME280;4599;50.906;6.786;2024-01-15T10:17:00;98951.81;;;0.42;94.89
9129;BME280;4599;50.906;6.786;2024-01-15T10:21:02;98949.84;;;0.31;95.62
9129;BME280;4599;50.906;6.786;2024-01-15T10:25:05;98965.38;;;0.24;95.91
9129;BME280;4599;50.906;6.786;2024-01-15T10:29:07;98958.22;;;0.32;95.19
9129;BME280;4599;50.906;6.786;2024-01-15T10:33:09;98959.72;;;0.19;96.26
9129;BME280;4599;50.906;6.786;2024-01-15T10:37:11;98969.25;;;0.14;96.35
9129;BME280;4599;50.906;6.786;2024-01-15T10:41:13;98961.97;;;0.25;96.20
9129;BME280;4599;50.906;6.786;2024-01-15T10:45:16;98968.09;;;0.19;96.24
9129;BME280;4599;50.906;6.786;2024-01-15T10:49:18;98957.97;;;0.21;96.33
9129;BME280;4599;50.906;6.786;2024-01-15T10:53:21;98950.16;;;0.25;95.78
9129;BME280;4599;50.906;6.786;2024-01-15T10:57:23;98955.75;;;0.15;96.94
9129;BME280;4599;50.906;6.786;2024-01-15T11:01:30;98955.84;;;0.29;96.42
9129;BME280;4599;50.906;6.786;2024-01-15T11:05:33;98953.16;;;0.16;96.17
9129;BME280;4599;50.906;6.786;2024-01-15T11:09:35;98961.38;;;0.20;96.37
9129;BME280;4599;50.906;6.786;2024-01-15T11:13:40;98963.81;;;0.21;96.41
9129;BME280;4599;50.906;6.786;2024-01-15T11:18:00;98969.41;;;0.26;96.27
9129;BME280;4599;50.906;6.786;2024-01-15T11:22:03;98959.84;;;0.33;95.82
9129;BME280;4599;50.906;6.786;2024-01-15T11:26:29;98953.66;;;0.23;96.09
9129;BME280;4599;50.906;6.786;2024-01-15T11:30:31;98959.00;;;0.32;95.87
9129;BME280;4599;50.906;6.786;2024-01-15T11:34:59;98968.88;;;0.21;96.61
9129;BME280;4599;50.906;6.786;2024-01-15T11:39:40;98961.47;;;0.34;96.10
9129;BME280;4599;50.906;6.786;2024-01-15T11:43:42;98965.13;;;0.28;96.62
9129;BME280;4599;50.906;6.786;2024-01-15T11:48:11;98969.03;;;0.34;95.97
9129;BME280;4599;50.906;6.786;2024-01-15T11:52:17;98979.91;;;0.34;95.57
9129;BME280;4599;50.906;6.786;2024-01-15T11:56:21;98977.00;;;0.42;96.06
9129;BME280;4599;50.906;6.786;2024-01-15T12:00:24;98966.34;;;0.37;95.33
9129;BME280;4599;50.906;6.786;2024-01-15T12:04:26;98952.69;;;0.41;95.68
9129;BME280;4599;50.906;6.786;2024-01-15T12:08:30;98969.22;;;0.78;94.19
9129;BME280;4599;50.906;6.786;2024-01-15T12:12:39;98974.91;;;1.27;93.68
9129;BME280;4599;50.906;6.786;2024-01-15T12:16:44;98962.84;;;1.76;92.16
9129;BME280;4599;50.906;6.786;2024-01-15T12:20:46;98955.16;;;1.77;90.91
9129;BME280;4599;50.906;6.786;2024-01-15T12:24:49;98956.97;;;1.75;90.96
9129;BME280;4599;50.906;6.786;2024-01-15T12:28:51;98951.72;;;1.64;90.52
9129;BME280;4599;50.906;6.786;2024-01-15T12:32:55;98956.94;;;1.47;90.82
9129;BME280;4599;50.906;6.786;2024-01-15T12:36:57;98975.41;;;1.18;90.90
9129;BME280;4599;50.906;6.786;2024-01-15T12:41:01;98954.41;;;1.17;91.28
9129;BME280;4599;50.906;6.786;2024-01-15T12:45:03;98968.28;;;1.24;91.07
9129;BME280;4599;50.906;6.786;2024-01-15T12:49:07;98965.94;;;1.21;91.04
9129;BME280;4599;50.906;6.786;2024-01-15T12:53:09;98973.63;;;1.20;91.42
9129;BME280;4599;50.906;6.786;2024-01-15T12:57:13;98973.78;;;1.17;90.88
9129;BME280;4599;50.906;6.786;2024-01-15T13:01:15;98974.75;;;1.14;91.76
9129;BME280;4599;50.906;6.786;2024-01-15T13:05:17;98984.34;;;1.23;90.65
9129;BME280;4599;50.906;6.786;2024-01-15T13:09:21;98987.28;;;1.16;91.93
9129;BME280;4599;50.906;6.786;2024-01-15T13:13:24;98989.28;;;1.40;91.94
9129;BME280;4599;50.906;6.786;2024-01-15T13:17:27;98978.19;;;1.43;90.04
9129;BME280;4599;50.906;6.786;2024-01-15T13:21:29;98984.09;;;1.28;90.48
9129;BME280;4599;50.906;6.786;2024-01-15T13:25:31;98980.16;;;1.08;91.11
9129;BME280;4599;50.906;6.786;2024-01-15T13:29:34;98984.72;;;1.02;91.31
9129;BME280;4599;50.906;6.786;2024-01-15T13:33:36;98978.28;;;0.96;92.43
9129;BME280;4599;50.906;6.786;2024-01-15T13:37:40;98985.84;;;0.96;92.79
9129;BME280;4599;50.906;6.786;2024-01-15T13:41:42;98980.00;;;0.95;92.26
9129;BME280;4599;50.906;6.786;2024-01-15T13:45:45;98986.00;;;0.93;92.24
9129;BME280;4599;50.906;6.786;2024-01-15T13:49:46;98996.59;;;0.99;92.42
9129;BME280;4599;50.906;6.786;2024-01-15T13:53:48;98989.28;;;0.95;92.88
9129;BME280;4599;50.906;6.786;2024-01-15T13:57:50;98990.81;;;0.97;92.06
9129;BME280;4599;50.906;6.786;2024-01-15T14:01:53;99006.44;;;1.04;92.33
9129;BME280;4599;50.906;6.786;2024-01-15T14:05:54;99003.78;;;0.91;92.07
9129;BME280;4599;50.906;6.786;2024-01-15T14:09:56;99014.81;;;1.05;92.78
9129;BME280;4599;50.906;6.786;2024-01-15T14:13:58;99016.63;;;0.87;92.35
9129;BME280;4599;50.906;6.786;2024-01-15T14:18:01;99015.56;;;0.91;92.37
9129;BME280;4599;50.906;6.786;2024-01-15T14:22:03;99042.56;;;0.89;93.49
9129;BME280;4599;50.906;6.786;2024-01-15T14:26:05;99044.94;;;0.92;92.35
9129;BME280;4599;50.906;6.786;2024-01-15T14:30:07;99047.88;;;0.84;92.92
9129;BME280;4599;50.906;6.786;2024-01-15T14:34:11;99055.34;;;0.70;93.36
9129;BME280;4599;50.906;6.786;2024-01-15T14:38:12;99060.81;;;0.45;93.95
9129;BME280;4599;50.906;6.786;2024-01-15T14:42:14;99077.88;;;0.40;94.83
9129;BME280;4599;50.906;6.786;2024-01-15T14:46:16;99077.56;;;0.46;95.15
9129;BME280;4599;50.906;6.786;2024-01-15T14:50:19;99083.06;;;0.37;94.94
9129;BME280;4599;50.906;6.786;2024-01-15T14:54:21;99088.28;;;0.34;95.05
9129;BME280;4599;50.906;6.786;2024-01-15T14:58:25;99083.56;;;0.44;95.08
9129;BME280;4599;50.906;6.786;2024-01-15T15:02:27;99098.41;;;0.33;95.04
9129;BME280;4599;50.906;6.786;2024-01-15T15:06:33;99101.44;;;0.39;94.88
9129;BME280;4599;50.906;6.786;2024-01-15T15:10:35;99105.28;;;0.46;94.74
9129;BME280;4599;50.906;6.786;2024-01-15T15:14:37;99121.84;;;0.35;95.03
9129;BME280;4599;50.906;6.786;2024-01-15T15:18:52;99120.34;;;0.31;95.06
9129;BME280;4599;50.906;6.786;2024-01-15T15:22:56;99127.31;;;0.26;95.86
9129;BME280;4599;50.906;6.786;2024-01-15T15:26:57;99136.19;;;0.33;95.55
9129;BME280;4599;50.906;6.786;2024-01-15T15:31:00;99140.41;;;0.32;95.58
9129;BME280;4599;50.906;6.786;2024-01-15T15:35:02;99150.38;;;0.35;95.49
9129;BME280;4599;50.906;6.786;2024-01-15T15:39:06;99158.06;;;0.32;95.41
9129;BME280;4599;50.906;6.786;2024-01-15T15:43:07;99165.34;;;0.21;95.77
9129;BME280;4599;50.906;6.786;2024-01-15T15:47:09;99185.88;;;0.31;95.24
9129;BME280;4599;50.906;6.786;2024-01-15T15:51:11;99186.38;;;0.37;95.27
9129;BME280;4599;50.906;6.786;2024-01-15T15:55:14;99181.34;;;0.20;95.10
9129;BME280;4599;50.906;6.786;2024-01-15T15:59:15;99195.19;;;0.29;95.76
9129;BME280;4599;50.906;6.786;2024-01-15T16:03:17;99210.09;;;0.33;95.65
9129;BME280;4599;50.906;6.786;2024-01-15T16:07:19;99219.03;;;0.22;95.48
9129;BME280;4599;50.906;6.786;2024-01-15T16:11:22;99223.34;;;0.37;95.28
9129;BME280;4599;50.906;6.786;2024-01-15T16:15:23;99226.31;;;0.28;95.53
9129;BME280;4599;50.906;6.786;2024-01-15T16:19:25;99229.22;;;0.37;94.83
9129;BME280;4599;50.906;6.786;2024-01-15T16:23:47;99231.88;;;0.34;94.71
9129;BME280;4599;50.906;6.786;2024-01-15T16:28:10;99237.81;;;0.33;95.55
9129;BME280;4599;50.906;6.786;2024-01-15T16:32:12;99241.16;;;0.34;95.71
9129;BME280;4599;50.906;6.786;2024-01-15T16:36:14;99244.53;;;0.33;95.49
9129;BME280;4599;50.906;6.786;2024-01-15T16:40:15;99255.53;;;0.32;95.45
9129;BME280;4599;50.906;6.786;2024-01-15T16:44:19;99249.38;;;0.37;95.18
9129;BME280;4599;50.906;6.786;2024-01-15T16:48:20;99248.84;;;0.31;94.94
9129;BME280;4599;50.906;6.786;2024-01-15T16:52:22;99237.91;;;0.32;94.58
9129;BME280;4599;50.906;6.786;2024-01-15T16:56:24;99255.44;;;0.33;95.08
9129;BME280;4599;50.906;6.786;2024-01-15T17:00:27;99262.34;;;0.30;95.47
9129;BME280;4599;50.906;6.786;2024-01-15T17:04:29;99256.78;;;0.23;94.71
9129;BME280;4599;50.906;6.786;2024-01-15T17:08:30;99261.75;;;0.25;95.14
9129;BME280;4599;50.906;6.786;2024-01-15T17:12:32;99267.53;;;0.27;94.80
9129;BME280;4599;50.906;6.786;2024-01-15T17:16:35;99269.44;;;0.22;94.74
9129;BME280;4599;50.906;6.786;2024-01-15T17:20:37;99282.84;;;0.22;94.26
9129;BME280;4599;50.906;6.786;2024-01-15T17:24:38;99273.94;;;0.15;94.88
9129;BME280;4599;50.906;6.786;2024-01-15T17:28:40;99290.34;;;0.24;94.25
9129;BME280;4599;50.906;6.786;2024-01-15T17:32:43;99286.69;;;0.12;94.12
9129;BME280;4599;50.906;6.786;2024-01-15T17:36:45;99303.09;;;0.02;94.11
9129;BME280;4599;50.906;6.786;2024-01-15T17:40:47;99303.78;;;0.06;93.70
9129;BME280;4599;50.906;6.786;2024-01-15T17:44:49;99301.13;;;-0.10;93.70
9129;BME280;4599;50.906;6.786;2024-01-15T17:48:52;99315.16;;;-0.23;94.37
9129;BME280;4599;50.906;6.786;2024-01-15T17:52:53;99327.94;;;-0.28;94.38
9129;BME280;4599;50.906;6.786;2024-01-15T17:56:55;99328.84;;;-0.29;94.29
9129;BME280;4599;50.906;6.786;2024-01-15T18:00:57;99325.81;;;-0.37;93.57
9129;BME280;4599;50.906;6.786;2024-01-15T18:05:01;99344.13;;;-0.33;94.29
9129;BME280;4599;50.906;6.786;2024-01-15T18:09:03;99342.06;;;-0.44;94.90
9129;BME280;4599;50.906;6.786;2024-01-15T18:13:05;99354.81;;;-0.28;94.32
9129;BME280;4599;50.906;6.786;2024-01-15T18:17:07;99358.50;;;-0.17;94.07
9129;BME280;4599;50.906;6.786;2024-01-15T18:21:10;99365.56;;;-0.25;94.25
9129;BME280;4599;50.906;6.786;2024-01-15T18:25:12;99361.56;;;-0.10;93.52
9129;BME280;4599;50.906;6.786;2024-01-15T18:29:13;99371.09;;;-0.17;93.50
9129;BME280;4599;50.906;6.786;2024-01-15T18:33:15;99369.94;;;-0.10;93.07
9129;BME280;4599;50.906;6.786;2024-01-15T18:37:18;99373.88;;;-0.23;93.37
9129;BME280;4599;50.906;6.786;2024-01-15T18:41:20;99383.06;;;-0.22;93.21
9129;BME280;4599;50.906;6.786;2024-01-15T18:45:21;99385.38;;;-0.17;93.48
9129;BME280;4599;50.906;6.786;2024-01-15T18:49:23;99394.97;;;-0.25;93.96
9129;BME280;4599;50.906;6.786;2024-01-15T18:53:26;99390.94;;;-0.29;93.79
9129;BME280;4599;50.906;6.786;2024-01-15T18:57:28;99398.03;;;-0.19;93.49
9129;BME280;4599;50.906;6.786;2024-01-15T19:01:30;99395.16;;;-0.30;93.91
9129;BME280;4599;50.906;6.786;2024-01-15T19:05:32;99395.44;;;-0.36;93.63
9129;BME280;4599;50.906;6.786;2024-01-15T19:09:35;99389.19;;;-0.47;93.99
9129;BME280;4599;50.906;6.786;2024-01-15T19:13:37;99400.97;;;-0.48;94.22
9129;BME280;4599;50.906;6.786;2024-01-15T19:17:39;99395.69;;;-0.62;94.44
9129;BME280;4599;50.906;6.786;2024-01-15T19:21:41;99397.94;;;-0.56;94.56
9129;BME280;4599;50.906;6.786;2024-01-15T19:25:44;99421.59;;;-0.60;94.37
9129;BME280;4599;50.906;6.786;2024-01-15T19:29:46;99418.03;;;-0.55;94.58
9129;BME280;4599;50.906;6.786;2024-01-15T19:33:48;99410.28;;;-0.70;94.86
9129;BME280;4599;50.906;6.786;2024-01-15T19:37:49;99419.75;;;-0.57;94.11
9129;BME280;4599;50.906;6.786;2024-01-15T19:41:52;99421.66;;;-0.62;94.41
9129;BME280;4599;50.906;6.786;2024-01-15T19:45:54;99417.31;;;-0.58;93.97
9129;BME280;4599;50.906;6.786;2024-01-15T19:49:56;99424.88;;;-0.58;94.28
9129;BME280;4599;50.906;6.786;2024-01-15T19:53:57;99429.81;;;-0.57;93.63
9129;BME280;4599;50.906;6.786;2024-01-15T19:58:00;99431.78;;;-0.63;94.38
9129;BME280;4599;50.906;6.786;2024-01-15T20:02:02;99435.56;;;-0.73;94.99
9129;BME280;4599;50.906;6.786;2024-01-15T20:06:04;99436.31;;;-0.71;95.03
9129;BME280;4599;50.906;6.786;2024-01-15T20:10:07;99449.06;;;-0.76;95.33
9129;BME280;4599;50.906;6.786;2024-01-15T20:14:10;99447.13;;;-0.49;94.43
9129;BME280;4599;50.906;6.786;2024-01-15T20:18:12;99453.81;;;-0.48;94.53
9129;BME280;4599;50.906;6.786;2024-01-15T20:22:14;99457.88;;;-0.45;94.63
9129;BME280;4599;50.906;6.786;2024-01-15T20:26:16;99453.81;;;-0.48;94.20
9129;BME280;4599;50.906;6.786;2024-01-15T20:30:20;99461.78;;;-0.38;94.17
9129;BME280;4599;50.906;6.786;2024-01-15T20:34:21;99455.06;;;-0.38;93.92
9129;BME280;4599;50.906;6.786;2024-01-15T20:38:23;99466.78;;;-0.37;93.86
9129;BME280;4599;50.906;6.786;2024-01-15T20:42:25;99473.31;;;-0.33;93.84
9129;BME280;4599;50.906;6.786;2024-01-15T20:46:29;99484.78;;;-0.26;93.52
9129;BME280;4599;50.906;6.786;2024-01-15T20:50:31;99471.69;;;-0.34;93.43
9129;BME280;4599;50.906;6.786;2024-01-15T20:54:33;99475.63;;;-0.28;93.41
9129;BME280;4599;50.906;6.786;2024-01-15T20:58:35;99491.94;;;-0.37;93.68
9129;BME280;4599;50.906;6.786;2024-01-15T21:02:39;99486.91;;;-0.37;92.96
9129;BME280;4599;50.906;6.786;2024-01-15T21:06:40;99493.69;;;-0.39;93.16
9129;BME280;4599;50.906;6.786;2024-01-15T21:10:43;99481.31;;;-0.43;93.17
9129;BME280;4599;50.906;6.786;2024-01-15T21:14:45;99490.00;;;-0.51;93.22
9129;BME280;4599;50.906;6.786;2024-01-15T21:18:49;99493.25;;;-0.48;93.53
9129;BME280;4599;50.906;6.786;2024-01-15T21:22:51;99490.56;;;-0.44;93.17
9129;BME280;4599;50.906;6.786;2024-01-15T21:26:52;99501.31;;;-0.40;93.59
9129;BME280;4599;50.906;6.786;2024-01-15T21:30:54;99504.44;;;-0.35;93.06
9129;BME280;4599;50.906;6.786;2024-01-15T21:34:57;99516.59;;;-0.45;94.22
9129;BME280;4599;50.906;6.786;2024-01-15T21:39:00;99516.25;;;-0.36;94.05
9129;BME280;4599;50.906;6.786;2024-01-15T21:43:02;99512.06;;;-0.37;94.57
9129;BME280;4599;50.906;6.786;2024-01-15T21:47:04;99516.41;;;-0.40;95.10
9129;BME280;4599;50.906;6.786;2024-01-15T21:51:07;99527.69;;;-0.29;94.35
9129;BME280;4599;50.906;6.786;2024-01-15T21:55:09;99524.53;;;-0.34;94.63
9129;BME280;4599;50.906;6.786;2024-01-15T21:59:10;99522.31;;;-0.21;94.91
9129;BME280;4599;50.906;6.786;2024-01-15T22:03:13;99527.69;;;-0.29;94.80
9129;BME280;4599;50.906;6.786;2024-01-15T22:07:16;99531.72;;;-0.25;94.95
9129;BME280;4599;50.906;6.786;2024-01-15T22:11:18;99536.06;;;-0.08;94.10
9129;BME280;4599;50.906;6.786;2024-01-15T22:15:20;99534.47;;;-0.11;94.09